createdAt,value
2022-11-15T00:00:55.692Z,22.15
2022-11-15T00:03:45.541Z,20.88
2022-11-15T00:06:32.902Z,22.40
2022-11-15T00:09:19.373Z,23.95
2022-11-15T00:12:10.617Z,22.63
2022-11-15T00:14:58.855Z,22.23
2022-11-15T00:17:46.832Z,22.48
2022-11-15T00:20:36.527Z,23.00
2022-11-15T00:23:22.480Z,22.13
2022-11-15T00:26:16.068Z,23.20
2022-11-15T00:29:08.613Z,22.60
2022-11-15T00:31:56.192Z,21.35
2022-11-15T00:34:44.890Z,22.15
2022-11-15T00:37:30.979Z,21.15
2022-11-15T00:40:21.680Z,21.60
2022-11-15T00:46:16.675Z,19.17
2022-11-15T00:49:02.226Z,20.63
2022-11-15T00:51:47.649Z,21.33
2022-11-15T00:54:34.285Z,21.60
2022-11-15T00:57:25.427Z,19.85
2022-11-15T01:00:14.479Z,20.67
2022-11-15T01:03:20.842Z,21.25
2022-11-15T01:06:07.429Z,19.75
2022-11-15T01:08:53.443Z,19.98
2022-11-15T01:11:43.086Z,20.80
2022-11-15T01:14:29.987Z,21.17
2022-11-15T01:17:15.872Z,21.55
2022-11-15T01:20:04.140Z,20.10
2022-11-15T01:22:49.912Z,20.00
2022-11-15T01:25:35.391Z,20.65
2022-11-15T01:28:38.289Z,19.05
2022-11-15T01:31:24.734Z,18.45
2022-11-15T01:34:10.378Z,20.17
2022-11-15T01:36:55.940Z,21.05
2022-11-15T01:39:43.059Z,20.88
2022-11-15T01:42:31.693Z,19.67
2022-11-15T01:45:18.021Z,19.98
2022-11-15T01:48:06.283Z,19.63
2022-11-15T01:50:52.087Z,18.20
2022-11-15T01:53:48.884Z,18.20
2022-11-15T01:56:40.107Z,19.13
2022-11-15T01:59:26.042Z,18.40
2022-11-15T02:02:12.857Z,18.42
2022-11-15T02:04:59.009Z,18.13
2022-11-15T02:07:49.836Z,17.38
2022-11-15T02:10:35.534Z,17.98
2022-11-15T02:13:21.889Z,17.45
2022-11-15T02:16:27.021Z,18.27
2022-11-15T02:19:36.020Z,17.80
2022-11-15T02:22:24.612Z,15.68
2022-11-15T02:25:17.971Z,17.65
2022-11-15T02:28:30.312Z,15.88
2022-11-15T02:31:45.575Z,17.38
2022-11-15T02:34:48.281Z,16.73
2022-11-15T02:38:01.371Z,17.50
2022-11-15T02:40:55.435Z,16.17
2022-11-15T02:43:59.148Z,16.23
2022-11-15T02:47:16.233Z,16.63
2022-11-15T02:50:21.222Z,16.83
2022-11-15T02:53:09.491Z,15.02
2022-11-15T02:55:57.846Z,14.23
2022-11-15T02:58:51.768Z,15.63
2022-11-15T03:01:53.512Z,16.20
2022-11-15T03:04:59.758Z,14.90
2022-11-15T03:07:48.049Z,15.93
2022-11-15T03:11:12.695Z,14.02
2022-11-15T03:14:03.850Z,15.25
2022-11-15T03:17:24.902Z,15.77
2022-11-15T03:20:15.644Z,16.70
2022-11-15T03:23:10.795Z,15.15
2022-11-15T03:25:57.647Z,15.60
2022-11-15T03:29:05.396Z,14.85
2022-11-15T03:31:59.457Z,16.25
2022-11-15T03:34:51.077Z,15.35
2022-11-15T03:37:55.660Z,15.35
2022-11-15T03:41:09.115Z,16.13
2022-11-15T03:43:59.488Z,15.13
2022-11-15T03:46:56.056Z,14.85
2022-11-15T03:49:47.623Z,14.55
2022-11-15T03:52:35.593Z,14.82
2022-11-15T03:55:27.865Z,16.23
2022-11-15T03:58:18.105Z,15.10
2022-11-15T04:01:06.950Z,14.45
2022-11-15T04:03:52.707Z,16.65
2022-11-15T04:06:39.480Z,16.75
2022-11-15T04:09:25.158Z,17.27
2022-11-15T04:12:10.886Z,17.08
2022-11-15T04:15:09.317Z,17.35
2022-11-15T04:18:00.263Z,16.35
2022-11-15T04:21:03.970Z,15.32
2022-11-15T04:24:07.830Z,16.67
2022-11-15T04:26:53.421Z,17.27
2022-11-15T04:29:39.079Z,17.17
2022-11-15T04:32:24.827Z,17.52
2022-11-15T04:35:10.782Z,17.00
2022-11-15T04:37:57.252Z,17.30
2022-11-15T04:40:43.176Z,17.17
2022-11-15T04:43:29.185Z,16.90
2022-11-15T04:46:14.636Z,16.48
2022-11-15T04:49:03.067Z,16.73
2022-11-15T04:51:52.618Z,17.35
2022-11-15T04:54:39.206Z,15.52
2022-11-15T04:57:24.904Z,15.38
2022-11-15T05:00:15.874Z,14.55
2022-11-15T05:03:27.893Z,16.55
2022-11-15T05:06:14.547Z,16.10
2022-11-15T05:09:00.636Z,16.02
2022-11-15T05:11:52.965Z,14.25
2022-11-15T05:14:46.366Z,14.75
2022-11-15T05:17:38.525Z,14.45
2022-11-15T05:20:25.984Z,13.82
2022-11-15T05:23:11.679Z,15.00
2022-11-15T05:26:05.066Z,15.63
2022-11-15T05:29:03.707Z,14.75
2022-11-15T05:31:49.887Z,14.27
2022-11-15T05:34:40.252Z,12.63
2022-11-15T05:37:26.790Z,13.32
2022-11-15T05:40:13.836Z,14.70
2022-11-15T05:43:07.628Z,13.80
2022-11-15T05:45:56.223Z,13.90
2022-11-15T05:48:47.430Z,13.75
2022-11-15T05:51:35.551Z,13.60
2022-11-15T05:54:28.197Z,13.38
2022-11-15T05:57:14.078Z,13.57
2022-11-15T06:00:02.531Z,14.18
2022-11-15T06:02:48.704Z,13.55
2022-11-15T06:05:34.097Z,14.63
2022-11-15T06:08:27.748Z,14.18
2022-11-15T06:11:13.226Z,14.32
2022-11-15T06:13:58.991Z,13.60
2022-11-15T06:16:47.123Z,12.77
2022-11-15T06:19:34.337Z,13.50
2022-11-15T06:22:20.273Z,13.85
2022-11-15T06:25:13.341Z,13.23
2022-11-15T06:28:00.739Z,13.00
2022-11-15T06:30:53.530Z,12.25
2022-11-15T06:33:40.156Z,12.63
2022-11-15T06:36:27.526Z,13.35
2022-11-15T06:39:23.798Z,13.27
2022-11-15T06:42:15.337Z,12.57
2022-11-15T06:45:01.478Z,12.80
2022-11-15T06:47:50.295Z,13.02
2022-11-15T06:50:35.625Z,12.75
2022-11-15T06:53:22.063Z,11.95
2022-11-15T06:56:08.415Z,11.77
2022-11-15T06:58:56.196Z,11.23
2022-11-15T07:01:41.755Z,11.77
2022-11-15T07:04:31.421Z,11.88
2022-11-15T07:07:17.020Z,11.88
2022-11-15T07:10:02.374Z,12.60
2022-11-15T07:13:01.211Z,12.57
2022-11-15T07:15:48.332Z,13.55
2022-11-15T07:18:41.454Z,13.43
2022-11-15T07:21:39.140Z,12.70
2022-11-15T07:24:48.374Z,11.88
2022-11-15T07:27:34.199Z,12.13
2022-11-15T07:30:23.542Z,13.10
2022-11-15T07:33:31.960Z,13.95
2022-11-15T07:36:17.704Z,14.00
2022-11-15T07:39:03.407Z,13.40
2022-11-15T07:42:20.677Z,15.23
2022-11-15T07:45:12.035Z,13.85
2022-11-15T07:48:10.814Z,12.43
2022-11-15T07:50:59.382Z,12.20
2022-11-15T07:53:52.807Z,12.55
2022-11-15T07:57:07.308Z,11.48
2022-11-15T07:59:59.670Z,11.90
2022-11-15T08:02:55.151Z,11.57
2022-11-15T08:05:44.645Z,10.88
2022-11-15T08:08:33.386Z,11.18
2022-11-15T08:11:19.344Z,10.20
2022-11-15T08:14:08.027Z,9.63
2022-11-15T08:16:56.064Z,10.23
2022-11-15T08:19:54.683Z,9.32
2022-11-15T08:22:52.223Z,9.00
2022-11-15T08:25:41.893Z,9.43
2022-11-15T08:28:34.335Z,8.50
2022-11-15T08:31:23.884Z,9.52
2022-11-15T08:34:10.215Z,9.10
2022-11-15T08:37:07.681Z,9.10
2022-11-15T08:40:02.364Z,9.07
2022-11-15T08:42:48.467Z,9.57
2022-11-15T08:45:36.691Z,9.43
2022-11-15T08:48:25.861Z,9.10
2022-11-15T08:51:14.070Z,7.90
2022-11-15T08:54:00.006Z,9.52
2022-11-15T08:56:54.696Z,7.10
2022-11-15T08:59:50.854Z,7.82
2022-11-15T09:02:43.127Z,9.18
2022-11-15T09:05:28.439Z,8.27
2022-11-15T09:08:45.569Z,8.93
2022-11-15T09:11:26.525Z,8.85
2022-11-15T09:14:18.304Z,9.70
2022-11-15T09:17:11.904Z,7.30
2022-11-15T09:20:07.557Z,7.05
2022-11-15T09:23:05.062Z,6.57
2022-11-15T09:26:01.794Z,6.70
2022-11-15T09:32:15.098Z,5.13
2022-11-15T09:35:03.959Z,5.10
2022-11-15T09:37:56.550Z,4.80
2022-11-15T09:40:46.796Z,3.85
2022-11-15T09:44:25.134Z,3.40
2022-11-15T09:47:43.805Z,2.90
2022-11-15T09:51:05.943Z,3.63
2022-11-15T09:57:16.705Z,1.90
2022-11-15T10:00:44.262Z,2.00
2022-11-15T10:03:50.185Z,1.80
2022-11-15T10:06:26.897Z,1.98
2022-11-15T10:09:03.366Z,1.85
2022-11-15T10:11:53.934Z,1.90
2022-11-15T10:14:31.345Z,1.92
2022-11-15T10:17:33.783Z,1.90
2022-11-15T10:20:18.638Z,2.00
2022-11-15T10:23:11.579Z,2.08
2022-11-15T10:25:41.057Z,1.90
2022-11-15T10:28:17.590Z,1.90
2022-11-15T10:30:48.965Z,2.05
2022-11-15T10:33:48.191Z,1.90
2022-11-15T10:36:22.750Z,1.92
2022-11-15T10:38:58.642Z,1.65
2022-11-15T10:42:17.747Z,1.70
2022-11-15T10:44:48.164Z,1.52
2022-11-15T10:47:39.298Z,1.60
2022-11-15T10:50:33.528Z,1.73
2022-11-15T10:55:35.838Z,1.70
2022-11-15T10:58:44.930Z,1.38
2022-11-15T11:02:03.764Z,1.50
2022-11-15T11:04:51.578Z,1.40
2022-11-15T11:07:27.412Z,1.38
2022-11-15T11:10:22.815Z,1.52
2022-11-15T11:13:26.729Z,1.60
2022-11-15T11:16:14.736Z,1.65
2022-11-15T11:19:19.954Z,1.60
2022-11-15T11:22:18.014Z,1.50
2022-11-15T11:25:20.458Z,1.85
2022-11-15T11:28:15.457Z,1.50
2022-11-15T11:31:17.202Z,1.63
2022-11-15T11:34:15.925Z,1.40
2022-11-15T11:38:06.373Z,1.70
2022-11-15T11:41:06.103Z,1.60
2022-11-15T11:43:52.774Z,1.30
2022-11-15T11:46:39.342Z,1.30
2022-11-15T11:49:30.832Z,1.40
2022-11-15T11:52:48.768Z,1.55
2022-11-15T11:55:29.842Z,1.60
2022-11-15T11:58:07.631Z,2.20
2022-11-15T12:00:46.412Z,2.15
2022-11-15T12:03:37.385Z,1.73
2022-11-15T12:06:48.872Z,1.58
2022-11-15T12:09:44.786Z,1.52
2022-11-15T12:12:42.428Z,1.30
2022-11-15T12:15:28.592Z,1.02
2022-11-15T12:18:25.783Z,2.50
2022-11-15T12:21:02.160Z,1.23
2022-11-15T12:23:36.708Z,1.27
2022-11-15T12:26:26.262Z,1.20
2022-11-15T12:29:07.376Z,1.60
2022-11-15T12:31:52.327Z,1.25
2022-11-15T12:34:52.250Z,1.25
2022-11-15T12:37:51.075Z,1.55
2022-11-15T12:40:38.428Z,1.30
2022-11-15T12:43:21.133Z,1.48
2022-11-15T12:46:13.076Z,1.65
2022-11-15T12:48:52.388Z,1.08
2022-11-15T12:51:24.946Z,1.25
2022-11-15T12:53:58.386Z,1.43
2022-11-15T12:56:36.210Z,1.27
2022-11-15T12:59:13.381Z,1.23
2022-11-15T13:02:00.956Z,1.20
2022-11-15T13:04:36.752Z,0.90
2022-11-15T13:07:07.843Z,1.13
2022-11-15T13:09:43.839Z,1.23
2022-11-15T13:12:34.815Z,1.30
2022-11-15T13:15:43.230Z,1.10
2022-11-15T13:18:42.633Z,1.30
2022-11-15T13:22:10.137Z,1.10
2022-11-15T13:24:52.559Z,1.38
2022-11-15T13:27:29.926Z,1.10
2022-11-15T13:30:00.317Z,1.10
2022-11-15T13:32:32.480Z,1.30
2022-11-15T13:35:05.879Z,1.42
2022-11-15T13:37:39.674Z,2.72
2022-11-15T13:40:51.662Z,1.75
2022-11-15T13:43:25.172Z,1.27
2022-11-15T13:46:34.129Z,1.20
2022-11-15T13:49:20.248Z,1.35
2022-11-15T13:52:05.532Z,1.20
2022-11-15T13:54:55.704Z,1.33
2022-11-15T13:58:14.166Z,1.08
2022-11-15T14:00:55.293Z,0.98
2022-11-15T14:03:29.908Z,2.40
2022-11-15T14:06:24.671Z,1.67
2022-11-15T14:09:25.712Z,1.38
2022-11-15T14:12:10.878Z,1.98
2022-11-15T14:15:43.345Z,2.05
2022-11-15T14:18:44.548Z,2.75
2022-11-15T14:21:18.381Z,1.67
2022-11-15T14:23:52.501Z,1.48
2022-11-15T14:27:09.860Z,1.98
2022-11-15T14:29:56.493Z,1.35
2022-11-15T14:32:58.679Z,2.67
2022-11-15T14:36:19.774Z,6.55
2022-11-15T14:38:53.963Z,2.25
2022-11-15T14:41:42.731Z,3.97
2022-11-15T14:44:28.105Z,2.80
2022-11-15T14:47:02.066Z,1.60
2022-11-15T14:49:37.771Z,3.78
2022-11-15T14:52:50.691Z,6.28
2022-11-15T14:55:33.840Z,1.80
2022-11-15T14:58:05.121Z,1.40
2022-11-15T15:06:05.944Z,3.90
2022-11-15T15:08:33.469Z,3.47
2022-11-15T15:11:03.146Z,1.50
2022-11-15T15:13:37.577Z,1.90
2022-11-15T15:16:18.447Z,1.30
2022-11-15T15:18:55.850Z,1.70
2022-11-15T15:21:33.546Z,2.90
2022-11-15T15:26:51.327Z,2.20
2022-11-15T15:29:23.918Z,3.03
2022-11-15T15:31:54.641Z,1.90
2022-11-15T15:34:27.429Z,2.95
2022-11-15T15:37:24.528Z,1.88
2022-11-15T15:39:56.863Z,1.67
2022-11-15T15:42:24.588Z,1.95
2022-11-15T15:44:58.949Z,1.85
2022-11-15T15:47:30.591Z,3.88
2022-11-15T15:50:20.652Z,3.25
2022-11-15T15:53:30.444Z,2.05
2022-11-15T15:56:05.019Z,2.30
2022-11-15T15:58:52.651Z,5.18
2022-11-15T16:01:30.585Z,1.95
2022-11-15T16:04:00.778Z,2.50
2022-11-15T16:06:37.195Z,1.80
2022-11-15T16:09:16.279Z,2.17
2022-11-15T16:11:47.272Z,1.92
2022-11-15T16:14:24.153Z,1.80
2022-11-15T16:16:54.266Z,2.00
2022-11-15T16:19:26.039Z,2.17
2022-11-15T16:21:54.165Z,2.55
2022-11-15T16:24:29.501Z,2.60
2022-11-15T16:29:48.286Z,3.20
2022-11-15T16:32:32.142Z,2.88
2022-11-15T16:35:02.275Z,4.05
2022-11-15T16:37:32.302Z,2.58
2022-11-15T16:40:10.223Z,2.83
2022-11-15T16:42:42.902Z,2.83
2022-11-15T16:45:14.601Z,3.28
2022-11-15T16:47:44.055Z,2.70
2022-11-15T16:51:12.092Z,2.60
2022-11-15T16:53:58.292Z,2.70
2022-11-15T16:56:34.897Z,5.22
2022-11-15T16:59:02.631Z,3.25
2022-11-15T17:01:38.639Z,4.68
2022-11-15T17:07:00.700Z,3.58
2022-11-15T17:09:31.887Z,13.27
2022-11-15T17:12:16.432Z,33.90
2022-11-15T17:14:58.342Z,5.13
2022-11-15T17:17:29.335Z,5.53
2022-11-15T17:20:28.495Z,8.60
2022-11-15T17:23:00.163Z,9.90
2022-11-15T17:25:47.693Z,8.07
2022-11-15T17:28:21.561Z,59.67
2022-11-15T17:31:17.658Z,6.80
2022-11-15T17:34:01.972Z,5.25
2022-11-15T17:36:31.947Z,12.07
2022-11-15T17:39:27.430Z,5.40
2022-11-15T17:45:09.902Z,5.50
2022-11-15T17:48:17.723Z,6.53
2022-11-15T17:50:53.983Z,6.25
2022-11-15T17:53:43.254Z,10.93
2022-11-15T17:59:28.553Z,9.38
2022-11-15T18:02:02.579Z,7.30
2022-11-15T18:08:56.158Z,5.00
2022-11-15T18:12:24.019Z,6.47
2022-11-15T18:15:09.399Z,7.18
2022-11-15T18:17:41.375Z,5.50
2022-11-15T18:20:12.418Z,8.05
2022-11-15T18:22:42.617Z,7.03
2022-11-15T18:25:21.350Z,6.65
2022-11-15T18:28:00.933Z,6.35
2022-11-15T18:30:29.588Z,7.25
2022-11-15T18:33:28.222Z,7.18
2022-11-15T18:36:09.904Z,6.25
2022-11-15T18:38:50.631Z,7.22
2022-11-15T18:41:38.975Z,6.85
2022-11-15T18:44:38.360Z,7.10
2022-11-15T18:47:09.770Z,8.40
2022-11-15T18:49:38.188Z,7.05
2022-11-15T18:52:05.435Z,13.35
2022-11-15T18:55:03.155Z,9.30
2022-11-15T18:57:31.589Z,8.65
2022-11-15T19:00:14.762Z,10.23
2022-11-15T19:03:07.409Z,9.35
2022-11-15T19:05:46.123Z,9.32
2022-11-15T19:08:18.748Z,9.70
2022-11-15T19:10:48.850Z,7.97
2022-11-15T19:13:32.936Z,11.20
2022-11-15T19:16:02.510Z,10.48
2022-11-15T19:18:37.683Z,9.38
2022-11-15T19:21:15.877Z,9.95
2022-11-15T19:23:50.882Z,8.30
2022-11-15T19:26:48.588Z,8.18
2022-11-15T19:29:33.658Z,8.07
2022-11-15T19:32:02.044Z,8.70
2022-11-15T19:34:31.568Z,7.70
2022-11-15T19:37:13.439Z,8.52
2022-11-15T19:39:52.037Z,8.60
2022-11-15T19:45:14.619Z,10.38
2022-11-15T19:48:00.471Z,10.90
2022-11-15T19:50:32.261Z,11.88
2022-11-15T19:53:02.850Z,10.23
2022-11-15T19:58:36.635Z,10.82
2022-11-15T20:01:10.308Z,10.70
2022-11-15T20:03:49.418Z,11.10
2022-11-15T20:06:39.478Z,12.88
2022-11-15T20:09:42.865Z,10.77
2022-11-15T20:12:58.024Z,11.02
2022-11-15T20:15:32.442Z,11.00
2022-11-15T20:18:43.139Z,11.50
2022-11-15T20:25:00.809Z,11.13
2022-11-15T20:27:33.076Z,10.20
2022-11-15T20:30:25.707Z,11.35
2022-11-15T20:33:03.995Z,10.25
2022-11-15T20:38:58.213Z,10.70
2022-11-15T20:41:27.890Z,12.27
2022-11-15T20:44:44.007Z,16.70
2022-11-15T20:47:11.674Z,11.68
2022-11-15T20:49:43.888Z,10.55
2022-11-15T20:52:13.223Z,10.93
2022-11-15T20:54:44.176Z,13.75
2022-11-15T20:57:14.389Z,14.20
2022-11-15T21:00:26.500Z,14.00
2022-11-15T21:03:00.391Z,13.48
2022-11-15T21:05:56.495Z,13.23
2022-11-15T21:08:29.214Z,9.45
2022-11-15T21:11:36.837Z,10.52
2022-11-15T21:14:09.038Z,10.90
2022-11-15T21:19:28.985Z,13.30
2022-11-15T21:22:06.245Z,13.25
2022-11-15T21:24:44.011Z,11.25
2022-11-15T21:27:16.815Z,11.60
2022-11-15T21:29:48.876Z,14.07
2022-11-15T21:32:24.288Z,12.55
2022-11-15T21:34:55.098Z,15.18
2022-11-15T21:40:03.537Z,11.43
2022-11-15T21:42:31.264Z,16.05
2022-11-15T21:45:01.824Z,15.88
2022-11-15T21:47:33.340Z,13.80
2022-11-15T21:50:01.374Z,10.95
2022-11-15T21:55:46.804Z,11.43
2022-11-15T21:58:20.859Z,10.13
2022-11-15T22:01:08.646Z,10.68
2022-11-15T22:03:47.780Z,11.57
2022-11-15T22:06:18.522Z,9.82
2022-11-15T22:11:16.610Z,9.23
2022-11-15T22:13:49.070Z,10.30
2022-11-15T22:16:23.884Z,9.88
2022-11-15T22:19:04.873Z,10.25
2022-11-15T22:21:38.304Z,11.18
2022-11-15T22:24:11.782Z,11.38
2022-11-15T22:26:51.526Z,9.75
2022-11-15T22:29:22.154Z,10.20
2022-11-15T22:31:54.813Z,11.02
2022-11-15T22:34:33.449Z,10.33
2022-11-15T22:37:19.860Z,10.35
2022-11-15T22:40:00.984Z,12.88
2022-11-15T22:42:34.840Z,9.85
2022-11-15T22:45:01.812Z,10.93
2022-11-15T22:47:30.220Z,11.48
2022-11-15T22:49:58.268Z,9.90
2022-11-15T22:52:28.093Z,10.70
2022-11-15T22:54:58.700Z,10.57
2022-11-15T22:57:31.722Z,10.07
2022-11-15T22:59:59.107Z,10.07
2022-11-15T23:02:29.449Z,11.98
2022-11-15T23:04:56.816Z,11.45
2022-11-15T23:07:32.975Z,10.20
2022-11-15T23:10:19.457Z,10.18
2022-11-15T23:13:12.576Z,11.43
2022-11-15T23:16:16.442Z,11.25
2022-11-15T23:18:54.778Z,10.25
2022-11-15T23:21:47.663Z,10.57
2022-11-15T23:24:19.136Z,10.27
2022-11-15T23:26:52.738Z,12.85
2022-11-15T23:32:12.324Z,10.20
2022-11-15T23:34:42.184Z,10.65
2022-11-15T23:37:15.001Z,11.27
2022-11-15T23:42:29.489Z,11.45
2022-11-15T23:45:07.727Z,11.63
2022-11-15T23:47:40.168Z,11.13
2022-11-15T23:50:20.308Z,10.75
2022-11-15T23:52:50.533Z,11.70
2022-11-15T23:55:19.055Z,10.27
2022-11-15T23:57:49.227Z,11.32
